Terminal Aerodrome Forecast
Issued by NWS Pocatello, ID

Home | Current Version | Previous Version | Text Only | Print | Product List | Glossary On
Versions: 1 2 3 4 5 6 7 8 9 10 11 12 13 14 15 16 17 18 19 20 21 22 23 24 25 26 27 28 29 30 31 32 33 34
000
FTUS45 KPIH 032320
TAFIDA
TAF
KIDA 032320Z 0400/0424 22010KT P6SM OVC022
     FM040500 20011KT P6SM VCSH BKN015 OVC030
     FM041400 20015G25KT 6SM -SN BR BKN010 OVC015
     FM042000 21022G32KT 6SM -SN OVC010=

USA.gov is the U.S. government's official web portal to all federal, state and local government web resources and services.